x

Cape Suckling - 35 Nm Se Of Kayak Is, Ak (46082) Wave Buoy

12:50pm - Tue 21st Oct 2014 All times are AKDT. -8 hours from GMT.

  • Sig Wave height 5.2ft
  • Peak Period 10s
  • Average Period 5s
  • Wind
    11mph, 16mph gusts
  • Sea Temp 52°f
  • Air Temp 49°f
  • Sea Pressure 987.5mb
  • Cape Suckling - 35 Nm Se Of Kayak Is, Ak
  • Cape Suckling - 35 Nm Se Of Kayak Is, Ak

More Historic Weather Station data

Upgrade to MSW Pro to gain access to the past 30 days of data for over 8000 Wavebouys and Weather Stations around the globe.

Join Pro

Comparision Forecast

View Surf forecast
   
Tue 10/21 12:50pm 5ft 10s 5s 11 16 mph 987.5mb 52f 49f
11:50am 5ft 11s 5s 13 16 mph 988.1mb 52f 49f
10:50am 5ft 10s 5s 11 16 mph 988.8mb 52f 49f
9:50am 5.5ft 11s 5s 13 18 mph 989.5mb 52f 49f
8:50am 5.5ft 11s 5s 16 20 mph 990mb 52f 48f
7:50am 5.5ft 5s 5s 18 20 mph 990.6mb 52f 48f
6:50am 6ft 10s 5s 20 25 mph 991mb 52f 48f
5:50am 6ft 10s 5s 20 25 mph 991.5mb 52f 48f
4:50am 7ft 8s 5s 16 22 mph 991.9mb 52f 48f
3:50am 7ft 11s 5s 18 25 mph 992.4mb 52f 46f
2:50am 6ft 10s 6s 20 27 mph 992.3mb 52f 48f
1:50am 6ft 10s 6s 16 20 mph 992.3mb 52f 49f
12:50am 6ft 11s 6s 16 18 mph 992.3mb 52f 49f
Mon 10/20 11:50pm 6.5ft 11s 6s 13 18 mph 992.3mb 52f 48f
10:50pm 6.5ft 10s 6s 11 16 mph 991.8mb 52f 48f
9:50pm 6ft 9s 6s 11 13 mph 991.4mb 52f 48f
8:50pm 6ft 8s 6s 11 13 mph 991.2mb 52f 47f
7:50pm 6ft 8s 6s 16 20 mph 990.7mb 52f 47f
6:50pm 6ft 8s 6s 9 11 mph 990.2mb 52f 47f
5:50pm 6ft 8s 6s 13 16 mph 989.6mb 52f 48f
4:50pm 7ft 10s 6s 13 16 mph 989.1mb 52f 48f
3:50pm 6.5ft 10s 6s 9 13 mph 989mb 52f 47f
2:50pm 7.5ft 10s 6s 7 9 mph 988.6mb 52f 46f
1:50pm 7ft 9s 6s 11 13 mph 988mb 52f 48f
12:50pm 7ft 10s 6s 9 13 mph 987.2mb 52f 49f
11:50am 7.5ft 10s 6s 13 18 mph 986.2mb 52f 48f
10:50am 7ft 9s 6s 16 20 mph 984.6mb 52f 49f
9:50am 7ft 10s 6s 18 20 mph 983.1mb 52f 49f
8:50am 6.5ft 11s 6s 18 22 mph 982mb 52f 49f
7:50am 7ft 10s 6s 18 25 mph 981.5mb 52f 49f
6:50am 8ft 10s 6s 16 22 mph 981.1mb 52f 50f
5:50am 8.5ft 11s 6s 13 18 mph 981.1mb 53f 49f
4:50am 8ft 11s 6s 9 11 mph 981.1mb 53f 49f
3:50am 8.5ft 10s 5s 9 16 mph 981mb 53f 49f
2:50am 9.5ft 11s 5s 31 38 mph 980mb 53f 49f
1:50am 9ft 11s 5s 29 38 mph 980.3mb 53f 50f
12:50am 9ft 11s 6s 27 34 mph 980.3mb 53f 51f
Sun 10/19 11:50pm 8ft 11s 6s 22 31 mph 980.5mb 53f 52f
10:50pm 9ft 10s 7s 20 25 mph 980.5mb 53f 52f
9:50pm 9ft 10s 7s 18 22 mph 980.6mb 53f 52f
7:50pm 8ft 10s 7s 11 13 mph 980.9mb 53f 52f
6:50pm 7.5ft 10s 6s 11 13 mph 980.8mb 53f 52f
5:50pm 9ft 11s 6s 11 16 mph 980.9mb 53f 52f
4:50pm 8ft 8s 6s 13 16 mph 981.2mb 53f 52f
3:50pm 9ft 9s 6s 13 18 mph 981.5mb 53f 52f
2:50pm 9.5ft 10s 6s 20 25 mph 981.8mb 53f 53f
1:50pm 10ft 9s 6s 22 27 mph 982.2mb 53f 52f
12:50pm 11ft 8s 6s 27 34 mph 982.5mb 53f 52f
11:50am 11ft 8s 6s 27 34 mph 982.8mb 53f 51f
10:50am 13ft 8s 6s 31 38 mph 982.8mb 53f 52f
9:50am 11ft 8s 6s 36 43 mph 982.8mb 53f 51f
8:50am 8ft 9s 6s 22 29 mph 984.4mb 53f 46f
7:50am 7ft 10s 6s 22 27 mph 985.3mb 53f 47f
6:50am 7ft 11s 5s 20 22 mph 986.4mb 53f 47f
5:50am 6ft 10s 5s 25 29 mph 987.1mb 53f 48f
4:50am 6ft 10s 6s 25 29 mph 987.6mb 53f 50f
3:50am 5ft 10s 6s 9 11 mph 987.9mb 53f 50f
2:50am 5.5ft 11s 6s 13 16 mph 988.4mb 53f 50f
1:50am 6ft 12s 7s 11 13 mph 988.5mb 53f 50f
12:50am 5ft 11s 8s 9 11 mph 988.6mb 53f 50f
Sat 10/18 11:50pm 4.5ft 11s 8s 7 9 mph 988.7mb 53f 50f
10:50pm 5.5ft 11s 8s 7 9 mph 988.8mb 53f 51f
9:50pm 6ft 12s 9s 4 7 mph 988.9mb 53f 51f
8:50pm 6ft 11s 8s 4 7 mph 988.9mb 53f 51f
7:50pm 5ft 11s 6s 4 7 mph 988.8mb 53f 51f
6:50pm 6ft 11s 6s 7 9 mph 989mb 53f 51f
5:50pm 5ft 12s 5s 13 16 mph 989.2mb 53f 51f
4:50pm 5ft 13s 6s 16 18 mph 989.6mb 53f 51f
3:50pm 4.5ft 12s 6s 13 16 mph 990.3mb 53f 51f
2:50pm 4.5ft 12s 7s 13 16 mph 991.1mb 53f 50f
1:50pm 4.5ft 12s 8s 13 16 mph 991.7mb 53f 50f
12:50pm 5ft 13s 9s 11 13 mph 991.9mb 53f 50f
11:50am 5.5ft 10s 9s 9 11 mph 991.8mb 53f 50f
10:50am 5.5ft 14s 10s 9 11 mph 991.7mb 53f 49f
9:50am 5ft 14s 10s 7 9 mph 991.6mb 53f 50f
8:50am 6ft 12s 10s 7 9 mph 991.1mb 53f 50f
7:50am 6ft 14s 10s 4 7 mph 991.1mb 53f 49f
6:50am 5ft 14s 9s 7 9 mph 990.8mb 53f 48f
5:50am 5.5ft 14s 9s 2 4 mph 990.7mb 53f 49f
4:50am 5ft 14s 8s  -  2 mph 990.7mb 53f 48f
3:50am 4.5ft 11s 8s  -  2 mph 990.7mb 53f 48f
2:50am 3.5ft 11s 6s 2 7 mph 990.7mb 53f 48f
1:50am 3.5ft 11s 6s 2 4 mph 990.7mb 53f 48f
12:50am 4ft 11s 7s 2
mph
990.7mb 53f 48f
Fri 10/17 11:50pm 4.5ft 11s 6s 2 4 mph 990.9mb 53f 48f
10:50pm 4ft 10s 6s 2 4 mph 991mb 53f 49f